createdAt,value
2018-12-26T00:02:28.824Z,76.11
2018-12-26T00:04:57.757Z,76.15
2018-12-26T00:07:26.626Z,75.52
2018-12-26T00:09:55.534Z,76.06
2018-12-26T00:12:24.401Z,76.38
2018-12-26T00:14:53.311Z,76.01
2018-12-26T00:17:22.196Z,75.97
2018-12-26T00:19:51.245Z,76.99
2018-12-26T00:22:19.979Z,76.52
2018-12-26T00:24:48.873Z,76.57
2018-12-26T00:27:17.747Z,76.65
2018-12-26T00:29:46.656Z,76.83
2018-12-26T00:32:15.542Z,76.94
2018-12-26T00:34:44.436Z,76.77
2018-12-26T00:37:13.390Z,77.39
2018-12-26T00:39:42.298Z,77.62
2018-12-26T00:42:11.207Z,77.26
2018-12-26T00:44:40.085Z,77.67
2018-12-26T00:47:09.014Z,78.19
2018-12-26T00:49:37.871Z,78.10
2018-12-26T00:52:06.778Z,77.83
2018-12-26T00:54:35.679Z,78.30
2018-12-26T00:57:04.553Z,78.70
2018-12-26T00:59:33.441Z,78.64
2018-12-26T01:02:02.341Z,78.17
2018-12-26T01:04:31.203Z,78.54
2018-12-26T01:07:00.108Z,78.83
2018-12-26T01:09:28.987Z,78.43
2018-12-26T01:11:57.873Z,78.83
2018-12-26T01:14:26.748Z,79.29
2018-12-26T01:16:55.655Z,79.04
2018-12-26T01:19:24.549Z,78.81
2018-12-26T01:21:53.449Z,79.33
2018-12-26T01:24:22.336Z,79.36
2018-12-26T01:26:51.233Z,79.39
2018-12-26T01:29:20.116Z,79.22
2018-12-26T01:31:49.008Z,79.39
2018-12-26T01:34:17.889Z,79.40
2018-12-26T01:36:46.769Z,79.67
2018-12-26T01:39:15.661Z,79.62
2018-12-26T01:41:44.550Z,79.50
2018-12-26T01:44:13.442Z,79.49
2018-12-26T01:46:42.346Z,79.68
2018-12-26T01:49:11.230Z,79.35
2018-12-26T01:51:40.131Z,80.01
2018-12-26T01:54:09.052Z,79.54
2018-12-26T01:56:37.951Z,79.84
2018-12-26T01:59:07.094Z,79.76
2018-12-26T02:01:35.781Z,79.92
2018-12-26T02:04:04.673Z,79.74
2018-12-26T02:06:33.593Z,79.86
2018-12-26T02:09:02.472Z,79.81
2018-12-26T02:11:31.373Z,79.58
2018-12-26T02:14:00.269Z,80.13
2018-12-26T02:16:29.141Z,80.17
2018-12-26T02:18:58.059Z,80.01
2018-12-26T02:21:26.945Z,79.83
2018-12-26T02:23:55.863Z,80.26
2018-12-26T02:26:24.751Z,80.34
2018-12-26T02:28:53.647Z,80.20
2018-12-26T02:31:22.521Z,79.94
2018-12-26T02:33:51.435Z,80.33
2018-12-26T02:36:20.288Z,80.19
2018-12-26T02:38:49.182Z,80.48
2018-12-26T02:41:18.051Z,80.54
2018-12-26T02:43:46.959Z,80.21
2018-12-26T02:46:15.837Z,80.24
2018-12-26T02:48:44.750Z,80.51
2018-12-26T02:51:13.632Z,80.47
2018-12-26T02:53:42.504Z,80.33
2018-12-26T02:56:11.407Z,80.71
2018-12-26T02:58:40.290Z,80.35
2018-12-26T03:01:09.262Z,80.43
2018-12-26T03:03:38.169Z,80.09
2018-12-26T03:06:07.108Z,78.93
2018-12-26T03:08:36.010Z,79.49
2018-12-26T03:11:04.942Z,79.46
2018-12-26T03:13:33.824Z,79.11
2018-12-26T03:16:02.709Z,79.36
2018-12-26T03:18:31.623Z,79.39
2018-12-26T03:21:00.509Z,79.28
2018-12-26T03:23:29.378Z,79.35
2018-12-26T03:25:58.294Z,79.12
2018-12-26T03:28:27.202Z,79.30
2018-12-26T03:30:56.086Z,79.07
2018-12-26T03:33:24.979Z,79.55
2018-12-26T03:35:53.887Z,79.44
2018-12-26T03:38:22.874Z,79.70
2018-12-26T03:40:51.780Z,79.04
2018-12-26T03:43:20.678Z,78.78
2018-12-26T03:45:49.541Z,78.59
2018-12-26T03:48:18.456Z,78.49
2018-12-26T03:50:47.350Z,78.49
2018-12-26T03:53:16.225Z,78.78
2018-12-26T03:55:45.135Z,78.28
2018-12-26T03:58:14.011Z,78.84
2018-12-26T04:00:42.903Z,78.61
2018-12-26T04:03:11.805Z,78.45
2018-12-26T04:05:40.681Z,78.68
2018-12-26T04:08:09.598Z,78.32
2018-12-26T04:10:38.460Z,78.31
2018-12-26T04:13:07.433Z,78.53
2018-12-26T04:15:36.438Z,78.65
2018-12-26T04:18:05.314Z,78.66
2018-12-26T04:20:34.215Z,78.71
2018-12-26T04:23:03.089Z,78.79
2018-12-26T04:25:31.989Z,78.61
2018-12-26T04:28:00.888Z,78.70
2018-12-26T04:30:29.792Z,78.82
2018-12-26T04:32:58.666Z,78.82
2018-12-26T04:35:27.633Z,79.02
2018-12-26T04:37:56.446Z,78.51
2018-12-26T04:40:25.501Z,79.15
2018-12-26T04:42:54.265Z,78.79
2018-12-26T04:45:23.151Z,78.55
2018-12-26T04:47:52.021Z,78.83
2018-12-26T04:50:20.948Z,78.74
2018-12-26T04:52:49.804Z,78.35
2018-12-26T04:55:18.699Z,78.47
2018-12-26T04:57:47.709Z,78.81
2018-12-26T05:00:16.598Z,78.94
2018-12-26T05:02:45.455Z,77.94
2018-12-26T05:05:14.364Z,78.43
2018-12-26T05:07:43.265Z,79.02
2018-12-26T05:10:12.155Z,78.86
2018-12-26T05:12:41.017Z,78.94
2018-12-26T05:15:09.919Z,79.03
2018-12-26T05:17:38.792Z,78.75
2018-12-26T05:20:07.822Z,78.79
2018-12-26T05:22:36.763Z,78.96
2018-12-26T05:25:05.739Z,78.74
2018-12-26T05:27:34.679Z,78.41
2018-12-26T05:30:03.553Z,78.95
2018-12-26T05:32:32.451Z,78.65
2018-12-26T05:35:01.367Z,78.78
2018-12-26T05:37:30.256Z,78.91
2018-12-26T05:39:59.146Z,78.73
2018-12-26T05:42:28.063Z,78.76
2018-12-26T05:44:56.970Z,79.00
2018-12-26T05:47:25.882Z,78.53
2018-12-26T05:49:54.783Z,78.35
2018-12-26T05:52:23.681Z,78.58
2018-12-26T05:54:52.569Z,78.54
2018-12-26T05:57:21.459Z,78.39
2018-12-26T05:59:50.374Z,78.21
2018-12-26T06:02:19.293Z,78.19
2018-12-26T06:04:48.378Z,77.98
2018-12-26T06:07:17.243Z,77.93
2018-12-26T06:09:46.147Z,77.63
2018-12-26T06:12:15.023Z,77.78
2018-12-26T06:14:43.955Z,77.60
2018-12-26T06:17:12.834Z,77.51
2018-12-26T06:19:41.709Z,77.58
2018-12-26T06:22:10.615Z,77.56
2018-12-26T06:24:39.520Z,77.52
2018-12-26T06:27:08.438Z,77.81
2018-12-26T06:29:37.356Z,77.67
2018-12-26T06:32:06.263Z,77.41
2018-12-26T06:34:35.147Z,77.45
2018-12-26T06:37:04.079Z,77.42
2018-12-26T06:39:32.961Z,77.08
2018-12-26T06:42:01.852Z,77.14
2018-12-26T06:44:32.652Z,77.39
2018-12-26T06:46:59.645Z,77.40
2018-12-26T06:49:28.547Z,77.29
2018-12-26T06:51:57.444Z,77.41
2018-12-26T06:54:26.327Z,77.65
2018-12-26T06:56:55.229Z,77.87
2018-12-26T06:59:24.139Z,78.12
2018-12-26T07:01:53.066Z,77.96
2018-12-26T07:04:21.933Z,77.92
2018-12-26T07:06:50.812Z,78.41
2018-12-26T07:09:19.718Z,78.60
2018-12-26T07:11:48.587Z,78.88
2018-12-26T07:14:17.482Z,78.92
2018-12-26T07:16:46.369Z,78.98
2018-12-26T07:19:15.264Z,78.94
2018-12-26T07:21:44.148Z,78.76
2018-12-26T07:24:13.043Z,79.07
2018-12-26T07:26:41.923Z,78.57
2018-12-26T07:29:10.830Z,79.13
2018-12-26T07:31:39.694Z,78.70
2018-12-26T07:34:08.735Z,79.87
2018-12-26T07:36:37.604Z,79.24
2018-12-26T07:39:07.815Z,80.47
2018-12-26T07:41:36.665Z,80.57
2018-12-26T07:44:05.586Z,80.19
2018-12-26T07:46:34.460Z,80.88
2018-12-26T07:49:03.395Z,81.50
2018-12-26T07:51:32.298Z,80.23
2018-12-26T07:54:01.172Z,81.49
2018-12-26T07:56:30.065Z,81.56
2018-12-26T07:58:58.982Z,82.18
2018-12-26T08:01:27.843Z,82.41
2018-12-26T08:03:56.762Z,82.96
2018-12-26T08:06:25.631Z,83.69
2018-12-26T08:08:54.541Z,83.25
2018-12-26T08:11:23.438Z,84.08
2018-12-26T08:13:52.363Z,84.32
2018-12-26T08:16:21.267Z,84.46
2018-12-26T08:18:50.143Z,82.92
2018-12-26T08:21:19.068Z,84.24
2018-12-26T08:23:47.938Z,83.15
2018-12-26T08:26:16.835Z,84.35
2018-12-26T08:28:45.757Z,84.56
2018-12-26T08:31:14.647Z,84.46
2018-12-26T08:33:43.539Z,84.70
2018-12-26T08:36:12.431Z,84.23
2018-12-26T08:38:41.324Z,84.87
2018-12-26T08:41:10.209Z,84.90
2018-12-26T08:43:39.078Z,85.58
2018-12-26T08:46:08.059Z,85.84
2018-12-26T08:48:36.969Z,85.73
2018-12-26T08:51:06.060Z,84.20
2018-12-26T08:53:34.926Z,85.14
2018-12-26T08:56:03.917Z,85.44
2018-12-26T08:58:35.281Z,85.38
2018-12-26T09:01:01.671Z,85.01
2018-12-26T09:03:30.564Z,83.74
2018-12-26T09:05:59.469Z,85.18
2018-12-26T09:08:28.344Z,85.18
2018-12-26T09:10:57.233Z,85.35
2018-12-26T09:13:26.113Z,85.45
2018-12-26T09:15:55.032Z,85.82
2018-12-26T09:18:23.895Z,85.64
2018-12-26T09:20:52.773Z,86.00
2018-12-26T09:23:21.683Z,86.09
2018-12-26T09:25:56.356Z,86.35
2018-12-26T09:28:25.235Z,86.55
2018-12-26T09:30:54.155Z,86.31
2018-12-26T09:33:23.056Z,84.54
2018-12-26T09:35:51.944Z,85.95
2018-12-26T09:38:20.950Z,84.48
2018-12-26T09:40:49.787Z,85.76
2018-12-26T09:43:18.684Z,86.37
2018-12-26T09:45:47.585Z,86.46
2018-12-26T09:48:16.489Z,84.71
2018-12-26T09:50:45.379Z,85.65
2018-12-26T09:53:14.279Z,85.79
2018-12-26T09:55:43.185Z,86.25
2018-12-26T09:58:12.073Z,85.93
2018-12-26T10:00:40.959Z,86.21
2018-12-26T10:03:09.844Z,85.58
2018-12-26T10:05:38.762Z,85.33
2018-12-26T10:08:07.717Z,85.63
2018-12-26T10:10:36.598Z,85.88
2018-12-26T10:13:05.642Z,86.66
2018-12-26T10:15:34.511Z,86.62
2018-12-26T10:18:03.467Z,86.79
2018-12-26T10:20:32.402Z,86.83
2018-12-26T10:23:01.293Z,84.86
2018-12-26T10:25:30.203Z,85.98
2018-12-26T10:27:59.073Z,86.28
2018-12-26T10:30:27.991Z,86.38
2018-12-26T10:32:56.868Z,86.80
2018-12-26T10:35:25.783Z,86.22
2018-12-26T10:37:54.693Z,86.63
2018-12-26T10:40:23.583Z,86.05
2018-12-26T10:42:52.487Z,87.30
2018-12-26T10:45:21.383Z,86.75
2018-12-26T10:47:50.295Z,86.83
2018-12-26T10:50:19.171Z,86.19
2018-12-26T10:52:48.074Z,86.79
2018-12-26T10:55:16.959Z,86.70
2018-12-26T10:57:45.874Z,86.47
2018-12-26T11:00:14.912Z,87.12
2018-12-26T11:02:43.817Z,87.11
2018-12-26T11:05:12.698Z,87.42
2018-12-26T11:07:41.563Z,87.40
2018-12-26T11:10:10.497Z,85.96
2018-12-26T11:12:39.362Z,86.70
2018-12-26T11:15:09.634Z,86.67
2018-12-26T11:17:38.496Z,85.27
2018-12-26T11:20:10.575Z,86.37
2018-12-26T11:22:39.466Z,86.72
2018-12-26T11:25:08.562Z,86.63
2018-12-26T11:27:37.486Z,86.65
2018-12-26T11:30:07.440Z,86.80
2018-12-26T11:32:36.341Z,87.28
2018-12-26T11:35:05.310Z,87.84
2018-12-26T11:37:34.181Z,87.45
2018-12-26T11:40:03.099Z,87.55
2018-12-26T11:42:32.014Z,87.62
2018-12-26T11:45:00.921Z,87.35
2018-12-26T11:47:29.863Z,87.48
2018-12-26T11:49:58.756Z,87.41
2018-12-26T11:52:27.647Z,87.11
2018-12-26T11:54:56.547Z,87.09
2018-12-26T11:57:25.445Z,87.50
2018-12-26T11:59:54.378Z,87.00
2018-12-26T12:02:23.289Z,87.30
2018-12-26T12:04:52.166Z,86.81
2018-12-26T12:07:21.040Z,87.17
2018-12-26T12:09:49.956Z,87.46
2018-12-26T12:12:19.258Z,87.50
2018-12-26T12:14:48.156Z,87.90
2018-12-26T12:17:17.029Z,87.79
2018-12-26T12:19:45.999Z,87.79
2018-12-26T12:22:14.818Z,87.32
2018-12-26T12:24:43.697Z,87.24
2018-12-26T12:27:12.620Z,87.58
2018-12-26T12:29:41.547Z,87.31
2018-12-26T12:32:10.550Z,86.85
2018-12-26T12:34:39.428Z,87.22
2018-12-26T12:37:08.432Z,87.41
2018-12-26T12:39:37.324Z,87.92
2018-12-26T12:42:06.294Z,87.68
2018-12-26T12:44:35.198Z,87.71
2018-12-26T12:47:04.197Z,87.59
2018-12-26T12:49:33.087Z,87.33
2018-12-26T12:52:02.007Z,87.49
2018-12-26T12:54:30.973Z,85.91
2018-12-26T12:56:59.780Z,87.25
2018-12-26T12:59:28.695Z,87.21
2018-12-26T13:01:57.581Z,87.03
2018-12-26T13:04:26.490Z,87.14
2018-12-26T13:06:55.447Z,87.03
2018-12-26T13:09:24.325Z,87.26
2018-12-26T13:11:53.239Z,87.21
2018-12-26T13:14:22.130Z,87.41
2018-12-26T13:16:51.021Z,87.51
2018-12-26T13:19:19.911Z,87.39
2018-12-26T13:21:48.819Z,87.27
2018-12-26T13:24:17.731Z,87.35
2018-12-26T13:26:46.655Z,87.10
2018-12-26T13:29:15.579Z,87.43
2018-12-26T13:31:44.478Z,87.47
2018-12-26T13:34:13.424Z,87.10
2018-12-26T13:36:42.320Z,87.30
2018-12-26T13:39:11.332Z,85.83
2018-12-26T13:41:40.232Z,86.85
2018-12-26T13:44:09.421Z,87.15
2018-12-26T13:46:38.317Z,86.99
2018-12-26T13:49:07.505Z,87.00
2018-12-26T13:51:36.335Z,86.92
2018-12-26T13:54:05.252Z,87.05
2018-12-26T13:56:34.193Z,86.90
2018-12-26T13:59:03.027Z,87.05
2018-12-26T14:01:31.912Z,87.11
2018-12-26T14:04:00.822Z,87.49
2018-12-26T14:06:29.701Z,87.48
2018-12-26T14:08:58.813Z,87.42
2018-12-26T14:11:27.695Z,87.09
2018-12-26T14:13:56.572Z,86.97
2018-12-26T14:16:25.476Z,86.73
2018-12-26T14:18:54.363Z,87.10
2018-12-26T14:21:23.265Z,85.78
2018-12-26T14:23:52.182Z,84.13
2018-12-26T14:26:21.081Z,83.13
2018-12-26T14:28:49.992Z,84.76
2018-12-26T14:31:18.898Z,85.30
2018-12-26T14:33:47.791Z,85.55
2018-12-26T14:36:16.690Z,85.76
2018-12-26T14:38:45.553Z,85.69
2018-12-26T14:41:14.460Z,85.68
2018-12-26T14:43:43.327Z,85.79
2018-12-26T14:46:12.238Z,85.53
2018-12-26T14:48:41.243Z,85.86
2018-12-26T14:51:10.084Z,85.98
2018-12-26T14:53:39.008Z,85.78
2018-12-26T14:56:07.906Z,86.11
2018-12-26T14:58:36.814Z,86.00
2018-12-26T15:01:05.739Z,86.06
2018-12-26T15:03:34.621Z,86.38
2018-12-26T15:06:03.577Z,86.36
2018-12-26T15:08:32.475Z,84.73
2018-12-26T15:11:01.354Z,86.00
2018-12-26T15:13:30.263Z,85.92
2018-12-26T15:15:59.239Z,86.21
2018-12-26T15:18:28.114Z,86.04
2018-12-26T15:20:57.005Z,86.19
2018-12-26T15:23:25.878Z,86.30
2018-12-26T15:25:54.785Z,86.34
2018-12-26T15:28:23.664Z,86.90
2018-12-26T15:30:52.612Z,86.87
2018-12-26T15:33:21.493Z,86.90
2018-12-26T15:35:50.407Z,86.71
2018-12-26T15:38:19.295Z,87.28
2018-12-26T15:40:48.223Z,87.10
2018-12-26T15:43:17.119Z,86.82
2018-12-26T15:45:46.001Z,86.90
2018-12-26T15:48:14.932Z,87.18
2018-12-26T15:50:43.831Z,87.06
2018-12-26T15:53:12.770Z,87.49
2018-12-26T15:55:41.669Z,87.39
2018-12-26T15:58:10.579Z,87.08
2018-12-26T16:00:39.474Z,87.23
2018-12-26T16:03:08.438Z,86.86
2018-12-26T16:05:37.336Z,86.95
2018-12-26T16:08:06.253Z,86.93
2018-12-26T16:10:35.167Z,87.10
2018-12-26T16:13:04.140Z,86.99
2018-12-26T16:15:33.038Z,87.13
2018-12-26T16:18:01.950Z,86.76
2018-12-26T16:20:30.900Z,86.92
2018-12-26T16:22:59.872Z,85.48
2018-12-26T16:25:28.650Z,84.27
2018-12-26T16:27:57.540Z,85.82
2018-12-26T16:30:26.437Z,86.51
2018-12-26T16:32:55.331Z,86.54
2018-12-26T16:35:24.309Z,86.72
2018-12-26T16:38:01.288Z,86.70
2018-12-26T16:40:22.024Z,86.64
2018-12-26T16:42:54.251Z,86.76
2018-12-26T16:45:23.134Z,86.62
2018-12-26T16:47:52.061Z,86.66
2018-12-26T16:50:26.985Z,84.49
2018-12-26T16:52:49.857Z,85.75
2018-12-26T16:55:18.722Z,86.51
2018-12-26T16:57:47.625Z,86.70
2018-12-26T17:00:16.492Z,86.99
2018-12-26T17:02:45.399Z,87.00
2018-12-26T17:05:14.313Z,87.50
2018-12-26T17:07:43.226Z,87.36
2018-12-26T17:10:15.851Z,87.37
2018-12-26T17:12:44.760Z,87.58
2018-12-26T17:15:13.637Z,87.78
2018-12-26T17:17:42.555Z,87.59
2018-12-26T17:20:11.430Z,87.40
2018-12-26T17:22:40.311Z,87.28
2018-12-26T17:25:09.216Z,87.64
2018-12-26T17:27:38.114Z,87.81
2018-12-26T17:30:07.583Z,87.11
2018-12-26T17:32:36.489Z,87.43
2018-12-26T17:35:05.551Z,87.69
2018-12-26T17:37:34.341Z,87.68
2018-12-26T17:40:03.793Z,87.75
2018-12-26T17:42:32.706Z,87.86
2018-12-26T17:45:01.611Z,87.68
2018-12-26T17:47:30.514Z,88.33
2018-12-26T17:50:35.615Z,88.22
2018-12-26T17:53:04.555Z,88.08
2018-12-26T17:56:00.196Z,88.33
2018-12-26T17:58:31.006Z,88.31
2018-12-26T18:01:12.993Z,88.06
2018-12-26T18:03:40.518Z,87.86
2018-12-26T18:06:09.294Z,85.80
2018-12-26T18:08:38.205Z,86.54
2018-12-26T18:11:07.077Z,86.71
2018-12-26T18:13:35.994Z,86.62
2018-12-26T18:16:04.944Z,86.69
2018-12-26T18:18:33.828Z,86.28
2018-12-26T18:21:02.728Z,86.26
2018-12-26T18:23:31.623Z,85.90
2018-12-26T18:26:00.547Z,85.91
2018-12-26T18:28:29.473Z,85.21
2018-12-26T18:30:58.346Z,84.85
2018-12-26T18:33:27.248Z,84.93
2018-12-26T18:35:56.159Z,84.88
2018-12-26T18:38:25.043Z,82.94
2018-12-26T18:40:53.935Z,84.23
2018-12-26T18:43:22.843Z,84.20
2018-12-26T18:45:51.736Z,82.80
2018-12-26T18:48:20.612Z,84.33
2018-12-26T18:50:49.511Z,84.19
2018-12-26T18:53:18.390Z,83.88
2018-12-26T18:55:47.296Z,84.22
2018-12-26T18:58:16.202Z,84.23
2018-12-26T19:00:45.094Z,84.22
2018-12-26T19:03:13.977Z,83.78
2018-12-26T19:05:42.883Z,84.18
2018-12-26T19:08:11.782Z,84.19
2018-12-26T19:10:40.642Z,84.18
2018-12-26T19:13:09.553Z,83.81
2018-12-26T19:15:38.438Z,84.43
2018-12-26T19:18:07.387Z,84.48
2018-12-26T19:20:36.274Z,84.37
2018-12-26T19:23:05.225Z,84.06
2018-12-26T19:25:34.116Z,81.89
2018-12-26T19:28:03.025Z,82.60
2018-12-26T19:30:31.912Z,82.68
2018-12-26T19:33:00.815Z,82.74
2018-12-26T19:35:29.686Z,82.36
2018-12-26T19:37:58.631Z,82.04
2018-12-26T19:40:27.513Z,81.90
2018-12-26T19:42:56.397Z,81.78
2018-12-26T19:45:25.302Z,81.93
2018-12-26T19:47:54.235Z,81.67
2018-12-26T19:50:23.138Z,81.84
2018-12-26T19:52:52.058Z,79.60
2018-12-26T19:55:20.986Z,80.84
2018-12-26T19:57:49.922Z,81.03
2018-12-26T20:00:18.834Z,80.93
2018-12-26T20:02:47.741Z,81.42
2018-12-26T20:05:16.641Z,81.67
2018-12-26T20:07:45.545Z,81.65
2018-12-26T20:10:14.477Z,81.62
2018-12-26T20:12:43.364Z,81.89
2018-12-26T20:15:12.249Z,79.87
2018-12-26T20:17:41.130Z,81.61
2018-12-26T20:20:10.053Z,81.53
2018-12-26T20:22:38.941Z,81.63
2018-12-26T20:25:07.945Z,82.50
2018-12-26T20:27:36.838Z,82.57
2018-12-26T20:30:06.907Z,82.69
2018-12-26T20:32:35.805Z,82.84
2018-12-26T20:35:05.048Z,83.50
2018-12-26T20:37:33.936Z,83.23
2018-12-26T20:40:02.858Z,83.59
2018-12-26T20:42:31.752Z,84.04
2018-12-26T20:45:00.663Z,84.31
2018-12-26T20:47:29.540Z,84.33
2018-12-26T20:49:58.435Z,84.82
2018-12-26T20:52:27.306Z,84.96
2018-12-26T20:54:56.214Z,84.82
2018-12-26T20:57:25.088Z,84.55
2018-12-26T20:59:54.040Z,84.44
2018-12-26T21:02:23.340Z,84.10
2018-12-26T21:04:52.235Z,84.16
2018-12-26T21:07:21.140Z,83.84
2018-12-26T21:09:50.048Z,83.47
2018-12-26T21:12:18.938Z,81.41
2018-12-26T21:14:47.844Z,82.73
2018-12-26T21:17:16.747Z,83.15
2018-12-26T21:19:45.645Z,82.89
2018-12-26T21:22:14.560Z,82.89
2018-12-26T21:24:43.434Z,82.82
2018-12-26T21:27:12.333Z,82.84
2018-12-26T21:29:41.260Z,82.94
2018-12-26T21:32:14.089Z,82.58
2018-12-26T21:34:39.091Z,82.35
2018-12-26T21:37:08.029Z,81.89
2018-12-26T21:39:36.953Z,81.82
2018-12-26T21:42:05.869Z,80.16
2018-12-26T21:44:34.768Z,81.05
2018-12-26T21:47:03.650Z,81.52
2018-12-26T21:49:32.588Z,81.63
2018-12-26T21:52:01.510Z,81.70
2018-12-26T21:54:30.395Z,79.94
2018-12-26T21:56:59.315Z,81.12
2018-12-26T21:59:28.196Z,81.90
2018-12-26T22:01:57.091Z,81.68
2018-12-26T22:04:25.982Z,81.87
2018-12-26T22:06:54.919Z,82.20
2018-12-26T22:09:23.793Z,81.75
2018-12-26T22:11:52.728Z,82.08
2018-12-26T22:14:21.620Z,82.22
2018-12-26T22:16:50.504Z,82.58
2018-12-26T22:19:19.414Z,82.48
2018-12-26T22:21:48.267Z,80.36
2018-12-26T22:24:17.167Z,81.92
2018-12-26T22:26:46.043Z,81.63
2018-12-26T22:29:14.964Z,81.31
2018-12-26T22:31:43.883Z,81.59
2018-12-26T22:34:12.784Z,81.77
2018-12-26T22:36:41.679Z,81.54
2018-12-26T22:39:10.553Z,81.43
2018-12-26T22:41:39.431Z,81.44
2018-12-26T22:44:08.326Z,81.15
2018-12-26T22:46:37.202Z,81.12
2018-12-26T22:49:06.116Z,80.89
2018-12-26T22:51:41.936Z,80.77
2018-12-26T22:54:03.934Z,80.73
2018-12-26T22:56:32.804Z,80.34
2018-12-26T22:59:01.734Z,80.56
2018-12-26T23:01:30.650Z,80.58
2018-12-26T23:03:59.518Z,80.40
2018-12-26T23:06:28.452Z,80.31
2018-12-26T23:08:57.336Z,78.32
2018-12-26T23:11:26.210Z,79.54
2018-12-26T23:13:55.101Z,79.70
2018-12-26T23:16:24.024Z,79.63
2018-12-26T23:18:52.898Z,79.54
2018-12-26T23:21:21.774Z,79.46
2018-12-26T23:23:50.671Z,79.38
2018-12-26T23:26:19.571Z,80.00
2018-12-26T23:28:48.534Z,79.67
2018-12-26T23:31:17.390Z,79.44
2018-12-26T23:33:46.269Z,79.36
2018-12-26T23:36:15.149Z,79.50
2018-12-26T23:38:44.114Z,79.87
2018-12-26T23:41:12.970Z,79.46
2018-12-26T23:43:41.856Z,79.46
2018-12-26T23:46:10.726Z,79.06
2018-12-26T23:48:39.643Z,78.76
2018-12-26T23:51:08.568Z,78.72
2018-12-26T23:53:37.475Z,78.49
2018-12-26T23:56:06.387Z,79.20
2018-12-26T23:58:35.271Z,79.26
